sensor_id;sensor_type;location;lat;lon;timestamp;P1;durP1;ratioP1;P2;durP2;ratioP2
58874;SDS011;44652;49.040;12.126;2023-03-31T05:30:24;20.98;;;13.60;;
58874;SDS011;44652;49.040;12.126;2023-03-31T05:32:55;16.67;;;11.13;;
58874;SDS011;44652;49.040;12.126;2023-03-31T05:35:21;17.00;;;11.02;;
58874;SDS011;44652;49.040;12.126;2023-03-31T05:37:48;14.52;;;9.60;;
58874;SDS011;44652;49.040;12.126;2023-03-31T05:40:15;15.00;;;10.27;;
58874;SDS011;44652;49.040;12.126;2023-03-31T05:42:41;16.02;;;10.18;;
58874;SDS011;44652;49.040;12.126;2023-03-31T05:45:08;14.20;;;10.10;;
58874;SDS011;44652;49.040;12.126;2023-03-31T05:47:38;13.57;;;9.68;;
58874;SDS011;44652;49.040;12.126;2023-03-31T05:50:04;14.23;;;9.75;;
58874;SDS011;44652;49.040;12.126;2023-03-31T05:52:34;18.33;;;12.07;;
58874;SDS011;44652;49.040;12.126;2023-03-31T05:55:00;21.80;;;12.45;;
58874;SDS011;44652;49.040;12.126;2023-03-31T05:57:27;15.90;;;10.45;;
58874;SDS011;44652;49.040;12.126;2023-03-31T05:59:54;16.15;;;10.10;;
58874;SDS011;44652;49.040;12.126;2023-03-31T06:02:20;17.73;;;10.75;;
58874;SDS011;44652;49.040;12.126;2023-03-31T06:04:47;17.27;;;11.02;;
58874;SDS011;44652;49.040;12.126;2023-03-31T06:07:13;22.48;;;13.90;;
58874;SDS011;44652;49.040;12.126;2023-03-31T06:09:43;17.05;;;11.50;;
58874;SDS011;44652;49.040;12.126;2023-03-31T06:12:10;17.08;;;10.93;;
58874;SDS011;44652;49.040;12.126;2023-03-31T06:14:37;15.32;;;9.48;;
58874;SDS011;44652;49.040;12.126;2023-03-31T06:17:04;18.40;;;10.38;;
58874;SDS011;44652;49.040;12.126;2023-03-31T06:19:30;20.65;;;11.40;;
58874;SDS011;44652;49.040;12.126;2023-03-31T06:21:57;15.40;;;9.98;;
58874;SDS011;44652;49.040;12.126;2023-03-31T06:24:23;17.48;;;10.75;;
58874;SDS011;44652;49.040;12.126;2023-03-31T06:26:50;17.95;;;10.85;;
58874;SDS011;44652;49.040;12.126;2023-03-31T06:29:19;16.27;;;11.23;;
58874;SDS011;44652;49.040;12.126;2023-03-31T06:31:46;20.60;;;12.05;;
58874;SDS011;44652;49.040;12.126;2023-03-31T06:34:29;18.02;;;12.25;;
58874;SDS011;44652;49.040;12.126;2023-03-31T06:37:01;20.52;;;11.27;;
58874;SDS011;44652;49.040;12.126;2023-03-31T06:39:31;17.52;;;11.20;;
58874;SDS011;44652;49.040;12.126;2023-03-31T06:44:26;13.30;;;9.18;;
58874;SDS011;44652;49.040;12.126;2023-03-31T06:46:53;15.38;;;10.90;;
58874;SDS011;44652;49.040;12.126;2023-03-31T06:49:20;17.13;;;10.35;;
58874;SDS011;44652;49.040;12.126;2023-03-31T06:51:46;15.18;;;10.15;;
58874;SDS011;44652;49.040;12.126;2023-03-31T06:54:13;17.55;;;10.20;;
58874;SDS011;44652;49.040;12.126;2023-03-31T06:56:44;14.18;;;9.50;;
58874;SDS011;44652;49.040;12.126;2023-03-31T06:59:11;17.13;;;10.40;;
58874;SDS011;44652;49.040;12.126;2023-03-31T07:01:37;17.33;;;9.88;;
58874;SDS011;44652;49.040;12.126;2023-03-31T07:04:04;16.92;;;9.88;;
58874;SDS011;44652;49.040;12.126;2023-03-31T07:06:31;12.48;;;9.68;;
58874;SDS011;44652;49.040;12.126;2023-03-31T07:08:59;13.95;;;9.60;;
58874;SDS011;44652;49.040;12.126;2023-03-31T07:11:26;16.60;;;9.10;;
58874;SDS011;44652;49.040;12.126;2023-03-31T07:13:55;18.33;;;9.02;;
58874;SDS011;44652;49.040;12.126;2023-03-31T07:16:21;14.85;;;9.15;;
58874;SDS011;44652;49.040;12.126;2023-03-31T07:18:48;13.27;;;8.43;;
58874;SDS011;44652;49.040;12.126;2023-03-31T07:21:15;15.57;;;9.50;;
58874;SDS011;44652;49.040;12.126;2023-03-31T07:23:42;13.55;;;8.15;;
58874;SDS011;44652;49.040;12.126;2023-03-31T07:26:08;14.43;;;8.88;;
58874;SDS011;44652;49.040;12.126;2023-03-31T07:28:36;12.57;;;8.85;;
58874;SDS011;44652;49.040;12.126;2023-03-31T07:31:08;15.82;;;9.27;;
58874;SDS011;44652;49.040;12.126;2023-03-31T07:33:35;15.88;;;8.60;;
58874;SDS011;44652;49.040;12.126;2023-03-31T07:36:05;18.27;;;8.50;;
58874;SDS011;44652;49.040;12.126;2023-03-31T07:38:39;15.65;;;9.25;;
58874;SDS011;44652;49.040;12.126;2023-03-31T07:46:49;21.80;;;10.18;;
58874;SDS011;44652;49.040;12.126;2023-03-31T07:49:15;14.35;;;10.50;;
58874;SDS011;44652;49.040;12.126;2023-03-31T07:51:42;15.05;;;10.10;;
58874;SDS011;44652;49.040;12.126;2023-03-31T07:54:11;20.17;;;11.68;;
58874;SDS011;44652;49.040;12.126;2023-03-31T07:56:37;19.98;;;11.65;;
58874;SDS011;44652;49.040;12.126;2023-03-31T07:59:04;17.20;;;10.88;;
58874;SDS011;44652;49.040;12.126;2023-03-31T08:01:30;13.50;;;10.13;;
58874;SDS011;44652;49.040;12.126;2023-03-31T08:03:57;18.92;;;12.30;;
58874;SDS011;44652;49.040;12.126;2023-03-31T08:06:24;19.38;;;12.35;;
58874;SDS011;44652;49.040;12.126;2023-03-31T08:08:54;19.05;;;11.50;;
58874;SDS011;44652;49.040;12.126;2023-03-31T08:11:21;21.90;;;12.95;;
58874;SDS011;44652;49.040;12.126;2023-03-31T08:13:48;22.40;;;15.05;;
58874;SDS011;44652;49.040;12.126;2023-03-31T08:52:29;16.08;;;10.85;;
58874;SDS011;44652;49.040;12.126;2023-03-31T08:59:39;16.58;;;12.32;;
58874;SDS011;44652;49.040;12.126;2023-03-31T09:07:00;16.88;;;13.52;;
58874;SDS011;44652;49.040;12.126;2023-03-31T09:17:26;17.27;;;11.77;;
58874;SDS011;44652;49.040;12.126;2023-03-31T09:20:15;20.00;;;13.88;;
58874;SDS011;44652;49.040;12.126;2023-03-31T09:22:46;25.52;;;15.63;;
58874;SDS011;44652;49.040;12.126;2023-03-31T09:25:15;22.38;;;14.15;;
58874;SDS011;44652;49.040;12.126;2023-03-31T09:27:42;20.33;;;14.27;;
58874;SDS011;44652;49.040;12.126;2023-03-31T09:32:36;20.08;;;13.25;;
58874;SDS011;44652;49.040;12.126;2023-03-31T09:38:30;18.25;;;15.75;;
58874;SDS011;44652;49.040;12.126;2023-03-31T09:40:57;19.25;;;15.45;;
58874;SDS011;44652;49.040;12.126;2023-03-31T09:43:30;19.88;;;15.20;;
58874;SDS011;44652;49.040;12.126;2023-03-31T09:46:00;22.92;;;17.58;;
58874;SDS011;44652;49.040;12.126;2023-03-31T09:48:40;20.58;;;16.15;;
58874;SDS011;44652;49.040;12.126;2023-03-31T09:51:14;19.10;;;15.48;;
58874;SDS011;44652;49.040;12.126;2023-03-31T09:53:50;20.58;;;15.75;;
58874;SDS011;44652;49.040;12.126;2023-03-31T10:28:54;15.30;;;11.43;;
58874;SDS011;44652;49.040;12.126;2023-03-31T10:38:50;15.80;;;10.48;;
58874;SDS011;44652;49.040;12.126;2023-03-31T10:42:19;15.07;;;9.82;;
58874;SDS011;44652;49.040;12.126;2023-03-31T10:52:47;11.75;;;8.00;;
58874;SDS011;44652;49.040;12.126;2023-03-31T11:08:21;6.85;;;3.70;;
58874;SDS011;44652;49.040;12.126;2023-03-31T11:11:05;6.15;;;3.38;;
58874;SDS011;44652;49.040;12.126;2023-03-31T11:14:39;7.43;;;3.67;;
58874;SDS011;44652;49.040;12.126;2023-03-31T11:21:48;6.35;;;2.80;;
58874;SDS011;44652;49.040;12.126;2023-03-31T11:29:32;6.95;;;2.45;;
58874;SDS011;44652;49.040;12.126;2023-03-31T11:35:03;9.70;;;3.13;;
58874;SDS011;44652;49.040;12.126;2023-03-31T11:37:41;10.20;;;2.67;;
58874;SDS011;44652;49.040;12.126;2023-03-31T11:42:47;5.95;;;2.47;;
58874;SDS011;44652;49.040;12.126;2023-03-31T11:45:18;9.10;;;2.67;;
58874;SDS011;44652;49.040;12.126;2023-03-31T11:47:47;5.18;;;2.08;;
58874;SDS011;44652;49.040;12.126;2023-03-31T11:50:17;5.60;;;2.40;;
58874;SDS011;44652;49.040;12.126;2023-03-31T11:53:19;5.60;;;2.03;;
58874;SDS011;44652;49.040;12.126;2023-03-31T11:55:37;6.53;;;2.50;;
58874;SDS011;44652;49.040;12.126;2023-03-31T11:58:06;4.47;;;1.80;;
58874;SDS011;44652;49.040;12.126;2023-03-31T12:00:40;7.55;;;2.20;;
58874;SDS011;44652;49.040;12.126;2023-03-31T12:03:12;4.68;;;1.77;;
58874;SDS011;44652;49.040;12.126;2023-03-31T12:06:24;5.72;;;2.20;;
58874;SDS011;44652;49.040;12.126;2023-03-31T12:08:38;6.80;;;1.83;;
58874;SDS011;44652;49.040;12.126;2023-03-31T12:11:12;6.57;;;1.63;;
58874;SDS011;44652;49.040;12.126;2023-03-31T12:16:14;4.28;;;1.60;;
58874;SDS011;44652;49.040;12.126;2023-03-31T12:21:27;8.05;;;2.15;;
58874;SDS011;44652;49.040;12.126;2023-03-31T12:23:54;6.70;;;1.63;;
58874;SDS011;44652;49.040;12.126;2023-03-31T12:29:11;4.80;;;1.77;;
58874;SDS011;44652;49.040;12.126;2023-03-31T12:31:41;4.95;;;1.83;;
58874;SDS011;44652;49.040;12.126;2023-03-31T12:34:12;4.47;;;1.47;;
58874;SDS011;44652;49.040;12.126;2023-03-31T12:42:20;5.32;;;1.60;;
58874;SDS011;44652;49.040;12.126;2023-03-31T12:52:54;3.92;;;1.52;;
58874;SDS011;44652;49.040;12.126;2023-03-31T13:00:53;4.78;;;1.65;;
58874;SDS011;44652;49.040;12.126;2023-03-31T13:16:39;4.20;;;1.30;;
58874;SDS011;44652;49.040;12.126;2023-03-31T13:19:06;3.53;;;1.40;;
58874;SDS011;44652;49.040;12.126;2023-03-31T13:21:51;4.43;;;1.35;;
58874;SDS011;44652;49.040;12.126;2023-03-31T13:24:20;5.28;;;1.27;;
58874;SDS011;44652;49.040;12.126;2023-03-31T13:26:46;3.72;;;1.17;;
58874;SDS011;44652;49.040;12.126;2023-03-31T13:34:34;4.13;;;1.10;;
58874;SDS011;44652;49.040;12.126;2023-03-31T13:39:43;3.40;;;0.90;;
58874;SDS011;44652;49.040;12.126;2023-03-31T13:47:42;9.98;;;1.38;;
58874;SDS011;44652;49.040;12.126;2023-03-31T14:28:46;2.22;;;0.70;;
58874;SDS011;44652;49.040;12.126;2023-03-31T14:34:55;3.88;;;0.82;;
58874;SDS011;44652;49.040;12.126;2023-03-31T14:37:25;3.40;;;0.80;;
58874;SDS011;44652;49.040;12.126;2023-03-31T14:39:53;5.07;;;1.13;;
58874;SDS011;44652;49.040;12.126;2023-03-31T14:42:26;4.07;;;0.98;;
58874;SDS011;44652;49.040;12.126;2023-03-31T14:48:49;2.65;;;0.70;;
58874;SDS011;44652;49.040;12.126;2023-03-31T14:51:17;2.47;;;0.73;;
58874;SDS011;44652;49.040;12.126;2023-03-31T14:53:44;4.47;;;0.90;;
58874;SDS011;44652;49.040;12.126;2023-03-31T15:19:09;6.60;;;1.10;;
58874;SDS011;44652;49.040;12.126;2023-03-31T15:21:37;3.17;;;0.70;;
58874;SDS011;44652;49.040;12.126;2023-03-31T15:24:04;4.28;;;0.98;;
58874;SDS011;44652;49.040;12.126;2023-03-31T15:26:39;5.35;;;0.90;;
58874;SDS011;44652;49.040;12.126;2023-03-31T15:29:08;3.95;;;0.85;;
58874;SDS011;44652;49.040;12.126;2023-03-31T15:31:40;5.68;;;1.02;;
58874;SDS011;44652;49.040;12.126;2023-03-31T15:34:14;3.72;;;1.25;;
58874;SDS011;44652;49.040;12.126;2023-03-31T15:36:41;5.40;;;1.60;;
58874;SDS011;44652;49.040;12.126;2023-03-31T15:39:09;2.67;;;0.88;;
58874;SDS011;44652;49.040;12.126;2023-03-31T15:41:43;2.97;;;0.90;;
58874;SDS011;44652;49.040;12.126;2023-03-31T15:55:38;5.72;;;1.20;;
58874;SDS011;44652;49.040;12.126;2023-03-31T15:58:06;5.05;;;1.33;;
58874;SDS011;44652;49.040;12.126;2023-03-31T16:13:09;2.78;;;0.90;;
58874;SDS011;44652;49.040;12.126;2023-03-31T16:23:33;6.50;;;2.70;;
58874;SDS011;44652;49.040;12.126;2023-03-31T16:30:07;6.40;;;1.30;;
58874;SDS011;44652;49.040;12.126;2023-03-31T16:32:57;3.15;;;1.10;;
58874;SDS011;44652;49.040;12.126;2023-03-31T16:35:30;4.38;;;1.25;;
58874;SDS011;44652;49.040;12.126;2023-03-31T16:37:57;4.32;;;1.00;;
58874;SDS011;44652;49.040;12.126;2023-03-31T16:40:30;5.47;;;1.13;;
58874;SDS011;44652;49.040;12.126;2023-03-31T16:43:06;7.18;;;1.10;;
58874;SDS011;44652;49.040;12.126;2023-03-31T16:45:33;8.85;;;1.85;;
58874;SDS011;44652;49.040;12.126;2023-03-31T16:47:59;4.15;;;1.08;;
58874;SDS011;44652;49.040;12.126;2023-03-31T16:50:41;3.80;;;1.05;;
58874;SDS011;44652;49.040;12.126;2023-03-31T16:53:08;3.97;;;1.15;;
58874;SDS011;44652;49.040;12.126;2023-03-31T16:55:34;6.05;;;1.40;;
58874;SDS011;44652;49.040;12.126;2023-03-31T16:58:01;3.55;;;1.08;;
58874;SDS011;44652;49.040;12.126;2023-03-31T17:00:29;5.70;;;1.35;;
58874;SDS011;44652;49.040;12.126;2023-03-31T17:02:56;3.58;;;1.23;;
58874;SDS011;44652;49.040;12.126;2023-03-31T17:05:23;4.50;;;0.98;;
58874;SDS011;44652;49.040;12.126;2023-03-31T17:07:50;3.08;;;0.93;;
58874;SDS011;44652;49.040;12.126;2023-03-31T17:10:17;4.65;;;1.30;;
58874;SDS011;44652;49.040;12.126;2023-03-31T17:12:44;3.47;;;1.00;;
58874;SDS011;44652;49.040;12.126;2023-03-31T17:15:11;4.50;;;1.20;;
58874;SDS011;44652;49.040;12.126;2023-03-31T17:17:37;3.97;;;1.17;;
58874;SDS011;44652;49.040;12.126;2023-03-31T17:20:04;4.70;;;1.15;;
58874;SDS011;44652;49.040;12.126;2023-03-31T17:22:32;3.60;;;1.10;;
58874;SDS011;44652;49.040;12.126;2023-03-31T17:24:58;2.85;;;0.93;;
58874;SDS011;44652;49.040;12.126;2023-03-31T17:27:25;6.25;;;1.40;;
58874;SDS011;44652;49.040;12.126;2023-03-31T17:29:52;3.72;;;1.00;;
58874;SDS011;44652;49.040;12.126;2023-03-31T17:32:19;3.80;;;1.00;;
58874;SDS011;44652;49.040;12.126;2023-03-31T17:34:47;5.88;;;1.50;;
58874;SDS011;44652;49.040;12.126;2023-03-31T17:37:14;5.03;;;1.58;;
58874;SDS011;44652;49.040;12.126;2023-03-31T17:39:42;4.65;;;1.40;;
58874;SDS011;44652;49.040;12.126;2023-03-31T17:42:09;3.15;;;1.13;;
58874;SDS011;44652;49.040;12.126;2023-03-31T17:44:36;2.50;;;0.90;;
58874;SDS011;44652;49.040;12.126;2023-03-31T17:47:02;2.90;;;0.98;;
58874;SDS011;44652;49.040;12.126;2023-03-31T17:49:29;5.38;;;1.00;;
58874;SDS011;44652;49.040;12.126;2023-03-31T17:51:55;8.32;;;1.40;;
58874;SDS011;44652;49.040;12.126;2023-03-31T17:54:22;4.35;;;1.30;;
58874;SDS011;44652;49.040;12.126;2023-03-31T17:56:49;6.40;;;1.55;;
58874;SDS011;44652;49.040;12.126;2023-03-31T17:59:16;4.72;;;1.42;;
58874;SDS011;44652;49.040;12.126;2023-03-31T18:01:43;3.30;;;1.15;;
58874;SDS011;44652;49.040;12.126;2023-03-31T18:04:09;4.88;;;1.60;;
58874;SDS011;44652;49.040;12.126;2023-03-31T18:06:36;6.63;;;2.63;;
58874;SDS011;44652;49.040;12.126;2023-03-31T18:09:07;8.65;;;4.22;;
58874;SDS011;44652;49.040;12.126;2023-03-31T18:11:37;7.57;;;4.40;;
58874;SDS011;44652;49.040;12.126;2023-03-31T18:14:04;6.00;;;3.30;;
58874;SDS011;44652;49.040;12.126;2023-03-31T18:16:30;6.05;;;2.65;;
58874;SDS011;44652;49.040;12.126;2023-03-31T18:18:57;7.68;;;2.28;;
58874;SDS011;44652;49.040;12.126;2023-03-31T18:21:27;6.00;;;2.20;;
58874;SDS011;44652;49.040;12.126;2023-03-31T18:23:54;3.72;;;1.58;;
58874;SDS011;44652;49.040;12.126;2023-03-31T18:26:21;4.43;;;2.30;;
58874;SDS011;44652;49.040;12.126;2023-03-31T18:39:38;8.43;;;2.17;;
58874;SDS011;44652;49.040;12.126;2023-03-31T18:42:05;3.30;;;1.20;;
58874;SDS011;44652;49.040;12.126;2023-03-31T18:44:32;2.67;;;1.20;;
58874;SDS011;44652;49.040;12.126;2023-03-31T19:06:12;4.60;;;1.70;;
58874;SDS011;44652;49.040;12.126;2023-03-31T19:08:38;2.30;;;0.77;;
58874;SDS011;44652;49.040;12.126;2023-03-31T19:11:07;2.25;;;1.23;;
58874;SDS011;44652;49.040;12.126;2023-03-31T19:13:42;3.35;;;1.40;;
58874;SDS011;44652;49.040;12.126;2023-03-31T19:16:24;2.55;;;1.00;;
58874;SDS011;44652;49.040;12.126;2023-03-31T19:34:09;2.83;;;0.90;;
58874;SDS011;44652;49.040;12.126;2023-03-31T19:37:22;4.18;;;1.20;;
58874;SDS011;44652;49.040;12.126;2023-03-31T19:39:49;2.08;;;0.82;;
58874;SDS011;44652;49.040;12.126;2023-03-31T19:42:16;5.22;;;1.90;;
58874;SDS011;44652;49.040;12.126;2023-03-31T19:44:43;5.43;;;1.90;;
58874;SDS011;44652;49.040;12.126;2023-03-31T19:59:11;4.15;;;1.83;;
58874;SDS011;44652;49.040;12.126;2023-03-31T20:01:37;5.97;;;2.05;;
58874;SDS011;44652;49.040;12.126;2023-03-31T20:11:55;5.55;;;1.38;;
58874;SDS011;44652;49.040;12.126;2023-03-31T20:29:27;5.78;;;1.00;;
58874;SDS011;44652;49.040;12.126;2023-03-31T20:31:55;4.18;;;1.20;;
58874;SDS011;44652;49.040;12.126;2023-03-31T20:34:41;2.38;;;0.80;;
58874;SDS011;44652;49.040;12.126;2023-03-31T20:41:12;8.95;;;1.85;;
58874;SDS011;44652;49.040;12.126;2023-03-31T20:43:39;10.73;;;5.38;;
58874;SDS011;44652;49.040;12.126;2023-03-31T20:46:06;4.20;;;1.60;;
58874;SDS011;44652;49.040;12.126;2023-03-31T20:48:37;4.00;;;1.25;;
58874;SDS011;44652;49.040;12.126;2023-03-31T20:51:05;3.67;;;1.40;;
58874;SDS011;44652;49.040;12.126;2023-03-31T20:53:33;4.80;;;1.65;;
58874;SDS011;44652;49.040;12.126;2023-03-31T20:59:18;4.68;;;1.85;;
58874;SDS011;44652;49.040;12.126;2023-03-31T21:04:24;2.85;;;1.05;;
58874;SDS011;44652;49.040;12.126;2023-03-31T21:06:57;4.07;;;1.17;;
58874;SDS011;44652;49.040;12.126;2023-03-31T21:09:26;5.13;;;1.60;;
58874;SDS011;44652;49.040;12.126;2023-03-31T21:11:52;4.88;;;1.10;;
58874;SDS011;44652;49.040;12.126;2023-03-31T21:14:22;5.63;;;1.40;;
58874;SDS011;44652;49.040;12.126;2023-03-31T21:16:56;3.97;;;1.00;;
58874;SDS011;44652;49.040;12.126;2023-03-31T21:19:23;3.78;;;1.33;;
58874;SDS011;44652;49.040;12.126;2023-03-31T21:21:50;7.65;;;1.27;;
58874;SDS011;44652;49.040;12.126;2023-03-31T21:24:20;5.05;;;1.75;;
58874;SDS011;44652;49.040;12.126;2023-03-31T21:26:47;3.22;;;1.15;;
58874;SDS011;44652;49.040;12.126;2023-03-31T21:37:07;3.83;;;1.10;;
58874;SDS011;44652;49.040;12.126;2023-03-31T21:39:34;4.93;;;1.40;;
58874;SDS011;44652;49.040;12.126;2023-03-31T21:42:00;4.32;;;1.00;;
58874;SDS011;44652;49.040;12.126;2023-03-31T21:44:27;5.82;;;1.10;;
58874;SDS011;44652;49.040;12.126;2023-03-31T21:46:53;6.40;;;1.40;;
58874;SDS011;44652;49.040;12.126;2023-03-31T21:49:20;5.38;;;1.30;;
58874;SDS011;44652;49.040;12.126;2023-03-31T21:51:47;4.22;;;1.15;;
58874;SDS011;44652;49.040;12.126;2023-03-31T21:54:14;6.05;;;1.52;;
58874;SDS011;44652;49.040;12.126;2023-03-31T21:56:40;5.00;;;1.25;;
